Terminal Aerodrome Forecast
Issued by NWS Pendleton, OR

Home | Current Version | Previous Version | Text Only | Print | Product List | Glossary On
Versions: 1 2 3 4 5 6 7 8 9 10 11 12 13
000
FTUS46 KPDT 302320
TAFPDT
TAF
KPDT 302320Z 3100/3124 27022G30KT P6SM SKC
     FM310900 25015G22KT P6SM SKC
     FM311200 25010G20KT P6SM SKC=

USA.gov is the U.S. government's official web portal to all federal, state and local government web resources and services.